OIBL  Bandar Lengeh  Airport

Bandar Lengeh, Iran

Add Bookmark
ICAO OIBL
IATA BDH
Type Airport
Status Operational
Latitude
26° 31' 55" N
26.532000
Longitude
54° 49' 29" E
54.824799
Local (DST + 5) UTC (GMT + 4)
Jul 29, 2015 12:13 Jul 28, 2015 19:43
Sunrise-Sunset Local UTC
Begin Civil Twilight 05:47 01:17
Sunrise 06:12 01:42
Sunset 07:41 15:11
End Civil Twilight 08:06 15:36
VFR
VFR
MVFR
MVFR
IFR
IFR
LIFR
LIFR
Unknown
Unavailable

Current Weather

METAR Observed
OIBL 281800Z 25008KT 5000 HZ NSC 34/29 Q0995 Tue, Jul 28, 2015 @ 18:00 UTC
(1 Hour, 43 Minutes ago)
Wind Visibility Conditions
250° at 8 knots (15 kph) 5,005 m
  • Haze
Temperatures Readings Precipitation
Current Temp
34°C
93°F
Dewpoint
29°C
84°F
Heat Index
49°C
120°
Humidity 75%
Altimeter 29.38" Hg
Sea Level Pressure 995 mb
Field Elevation
14 m
46 ft
None Recorded

Additional weather within a 92.6km radius of OIBL

Map ICAO Location
OIBS 74.8km S/SW (202°)
OIBA 75.9km S/SE (164°)
VFR
VFR
MVFR
MVFR
IFR
IFR
LIFR
LIFR
Unknown
Unavailable
-
-

CheckWX.com is intended as a tool to help pilots better visualize weather data. It is not intended as a substitute for an official weather briefing obtained from a Flight Service Station. CheckWX.com does not meet the FAA requirements for an official pre-flight weather briefing. Therefore, it's important that pilots still call and obtain an official FSS pre-flight weather briefing.

© 2007-2015 CheckWX.com
19:43:13 UTC